sensor_id;sensor_type;location;lat;lon;timestamp;P1;durP1;ratioP1;P2;durP2;ratioP2
27383;SDS011;14851;51.166;4.760;2023-08-12T00:01:16;9.27;;;5.28;;
27383;SDS011;14851;51.166;4.760;2023-08-12T00:03:42;7.57;;;4.60;;
27383;SDS011;14851;51.166;4.760;2023-08-12T00:06:08;8.93;;;4.72;;
27383;SDS011;14851;51.166;4.760;2023-08-12T00:08:33;7.97;;;4.95;;
27383;SDS011;14851;51.166;4.760;2023-08-12T00:10:59;11.45;;;4.65;;
27383;SDS011;14851;51.166;4.760;2023-08-12T00:13:25;10.27;;;5.20;;
27383;SDS011;14851;51.166;4.760;2023-08-12T00:15:51;8.20;;;5.15;;
27383;SDS011;14851;51.166;4.760;2023-08-12T00:18:17;11.50;;;6.22;;
27383;SDS011;14851;51.166;4.760;2023-08-12T00:20:45;9.07;;;4.95;;
27383;SDS011;14851;51.166;4.760;2023-08-12T00:23:11;11.82;;;5.80;;
27383;SDS011;14851;51.166;4.760;2023-08-12T00:25:37;11.18;;;6.32;;
27383;SDS011;14851;51.166;4.760;2023-08-12T00:28:05;9.43;;;5.15;;
27383;SDS011;14851;51.166;4.760;2023-08-12T00:30:31;11.02;;;6.00;;
27383;SDS011;14851;51.166;4.760;2023-08-12T00:32:59;10.38;;;6.20;;
27383;SDS011;14851;51.166;4.760;2023-08-12T00:35:27;8.32;;;5.80;;
27383;SDS011;14851;51.166;4.760;2023-08-12T00:37:55;8.77;;;5.57;;
27383;SDS011;14851;51.166;4.760;2023-08-12T00:40:21;7.85;;;4.82;;
27383;SDS011;14851;51.166;4.760;2023-08-12T00:42:47;11.55;;;6.18;;
27383;SDS011;14851;51.166;4.760;2023-08-12T00:45:13;10.48;;;6.45;;
27383;SDS011;14851;51.166;4.760;2023-08-12T00:47:39;12.50;;;5.95;;
27383;SDS011;14851;51.166;4.760;2023-08-12T00:50:08;10.13;;;6.78;;
27383;SDS011;14851;51.166;4.760;2023-08-12T00:52:35;11.45;;;6.47;;
27383;SDS011;14851;51.166;4.760;2023-08-12T00:55:02;11.93;;;6.45;;
27383;SDS011;14851;51.166;4.760;2023-08-12T00:57:28;10.77;;;6.68;;
27383;SDS011;14851;51.166;4.760;2023-08-12T00:59:55;12.15;;;6.90;;
27383;SDS011;14851;51.166;4.760;2023-08-12T01:02:22;10.98;;;6.53;;
27383;SDS011;14851;51.166;4.760;2023-08-12T01:04:47;9.65;;;5.80;;
27383;SDS011;14851;51.166;4.760;2023-08-12T01:07:13;13.50;;;6.72;;
27383;SDS011;14851;51.166;4.760;2023-08-12T01:09:39;8.63;;;5.65;;
27383;SDS011;14851;51.166;4.760;2023-08-12T01:14:42;10.18;;;6.30;;
27383;SDS011;14851;51.166;4.760;2023-08-12T01:17:15;8.00;;;5.55;;
27383;SDS011;14851;51.166;4.760;2023-08-12T01:19:43;8.98;;;6.45;;
27383;SDS011;14851;51.166;4.760;2023-08-12T01:22:10;12.38;;;5.97;;
27383;SDS011;14851;51.166;4.760;2023-08-12T01:24:44;11.10;;;5.50;;
27383;SDS011;14851;51.166;4.760;2023-08-12T01:27:10;10.27;;;5.80;;
27383;SDS011;14851;51.166;4.760;2023-08-12T01:29:41;9.40;;;5.50;;
27383;SDS011;14851;51.166;4.760;2023-08-12T01:37:33;8.85;;;5.53;;
27383;SDS011;14851;51.166;4.760;2023-08-12T01:40:01;9.65;;;5.60;;
27383;SDS011;14851;51.166;4.760;2023-08-12T01:42:34;12.10;;;6.07;;
27383;SDS011;14851;51.166;4.760;2023-08-12T01:45:02;10.82;;;5.80;;
27383;SDS011;14851;51.166;4.760;2023-08-12T01:47:28;9.35;;;5.38;;
27383;SDS011;14851;51.166;4.760;2023-08-12T01:49:55;8.55;;;5.53;;
27383;SDS011;14851;51.166;4.760;2023-08-12T01:52:22;8.23;;;5.35;;
27383;SDS011;14851;51.166;4.760;2023-08-12T01:54:48;10.20;;;5.55;;
27383;SDS011;14851;51.166;4.760;2023-08-12T01:57:17;10.10;;;5.60;;
27383;SDS011;14851;51.166;4.760;2023-08-12T01:59:43;10.00;;;5.30;;
27383;SDS011;14851;51.166;4.760;2023-08-12T02:02:10;11.65;;;5.22;;
27383;SDS011;14851;51.166;4.760;2023-08-12T02:04:39;9.02;;;5.30;;
27383;SDS011;14851;51.166;4.760;2023-08-12T02:07:05;9.73;;;5.20;;
27383;SDS011;14851;51.166;4.760;2023-08-12T02:09:31;10.18;;;5.68;;
27383;SDS011;14851;51.166;4.760;2023-08-12T02:11:57;10.23;;;5.53;;
27383;SDS011;14851;51.166;4.760;2023-08-12T02:14:23;6.68;;;5.05;;
27383;SDS011;14851;51.166;4.760;2023-08-12T02:16:49;9.63;;;5.45;;
27383;SDS011;14851;51.166;4.760;2023-08-12T02:19:15;6.85;;;5.15;;
27383;SDS011;14851;51.166;4.760;2023-08-12T02:21:41;8.63;;;5.45;;
27383;SDS011;14851;51.166;4.760;2023-08-12T02:24:07;8.80;;;5.70;;
27383;SDS011;14851;51.166;4.760;2023-08-12T02:26:36;8.57;;;5.82;;
27383;SDS011;14851;51.166;4.760;2023-08-12T02:29:03;7.43;;;5.10;;
27383;SDS011;14851;51.166;4.760;2023-08-12T02:31:29;9.40;;;5.03;;
27383;SDS011;14851;51.166;4.760;2023-08-12T02:33:55;9.25;;;5.78;;
27383;SDS011;14851;51.166;4.760;2023-08-12T02:36:21;8.02;;;5.10;;
27383;SDS011;14851;51.166;4.760;2023-08-12T02:38:47;10.43;;;5.10;;
27383;SDS011;14851;51.166;4.760;2023-08-12T02:41:13;7.10;;;4.53;;
27383;SDS011;14851;51.166;4.760;2023-08-12T02:43:38;9.73;;;4.97;;
27383;SDS011;14851;51.166;4.760;2023-08-12T02:46:04;8.77;;;4.60;;
27383;SDS011;14851;51.166;4.760;2023-08-12T02:48:31;10.30;;;4.97;;
27383;SDS011;14851;51.166;4.760;2023-08-12T02:50:57;7.68;;;4.68;;
27383;SDS011;14851;51.166;4.760;2023-08-12T02:53:23;9.65;;;4.25;;
27383;SDS011;14851;51.166;4.760;2023-08-12T02:55:49;7.68;;;4.43;;
27383;SDS011;14851;51.166;4.760;2023-08-12T02:58:14;9.07;;;4.25;;
27383;SDS011;14851;51.166;4.760;2023-08-12T03:00:41;9.27;;;4.43;;
27383;SDS011;14851;51.166;4.760;2023-08-12T03:03:09;11.65;;;4.70;;
27383;SDS011;14851;51.166;4.760;2023-08-12T03:05:35;5.45;;;4.20;;
27383;SDS011;14851;51.166;4.760;2023-08-12T03:08:02;7.95;;;4.50;;
27383;SDS011;14851;51.166;4.760;2023-08-12T03:10:29;9.43;;;4.55;;
27383;SDS011;14851;51.166;4.760;2023-08-12T03:12:56;8.80;;;4.50;;
27383;SDS011;14851;51.166;4.760;2023-08-12T03:15:22;7.38;;;5.00;;
27383;SDS011;14851;51.166;4.760;2023-08-12T03:17:51;9.25;;;5.10;;
27383;SDS011;14851;51.166;4.760;2023-08-12T03:20:16;6.20;;;4.20;;
27383;SDS011;14851;51.166;4.760;2023-08-12T03:22:43;9.48;;;4.90;;
27383;SDS011;14851;51.166;4.760;2023-08-12T03:25:10;8.52;;;4.53;;
27383;SDS011;14851;51.166;4.760;2023-08-12T03:27:37;7.53;;;4.78;;
27383;SDS011;14851;51.166;4.760;2023-08-12T03:30:03;6.75;;;4.38;;
27383;SDS011;14851;51.166;4.760;2023-08-12T03:32:31;5.90;;;4.60;;
27383;SDS011;14851;51.166;4.760;2023-08-12T03:34:58;6.53;;;4.88;;
27383;SDS011;14851;51.166;4.760;2023-08-12T03:37:25;9.35;;;5.20;;
27383;SDS011;14851;51.166;4.760;2023-08-12T03:39:54;7.55;;;4.88;;
27383;SDS011;14851;51.166;4.760;2023-08-12T03:42:22;7.03;;;4.63;;
27383;SDS011;14851;51.166;4.760;2023-08-12T03:45:10;8.48;;;4.82;;
27383;SDS011;14851;51.166;4.760;2023-08-12T03:47:35;10.55;;;5.72;;
27383;SDS011;14851;51.166;4.760;2023-08-12T03:50:01;9.57;;;5.10;;
27383;SDS011;14851;51.166;4.760;2023-08-12T03:52:30;9.75;;;5.43;;
27383;SDS011;14851;51.166;4.760;2023-08-12T03:54:55;10.10;;;6.00;;
27383;SDS011;14851;51.166;4.760;2023-08-12T03:57:22;9.40;;;5.95;;
27383;SDS011;14851;51.166;4.760;2023-08-12T03:59:48;11.80;;;6.25;;
27383;SDS011;14851;51.166;4.760;2023-08-12T04:02:16;16.63;;;7.00;;
27383;SDS011;14851;51.166;4.760;2023-08-12T04:04:41;10.93;;;5.90;;
27383;SDS011;14851;51.166;4.760;2023-08-12T04:07:09;9.65;;;5.32;;
27383;SDS011;14851;51.166;4.760;2023-08-12T04:09:35;13.10;;;5.80;;
27383;SDS011;14851;51.166;4.760;2023-08-12T04:12:01;14.15;;;6.20;;
27383;SDS011;14851;51.166;4.760;2023-08-12T04:14:27;16.67;;;6.90;;
27383;SDS011;14851;51.166;4.760;2023-08-12T04:16:55;7.65;;;5.32;;
27383;SDS011;14851;51.166;4.760;2023-08-12T04:19:21;9.93;;;5.50;;
27383;SDS011;14851;51.166;4.760;2023-08-12T04:21:49;9.65;;;4.70;;
27383;SDS011;14851;51.166;4.760;2023-08-12T04:24:16;7.30;;;4.78;;
27383;SDS011;14851;51.166;4.760;2023-08-12T04:26:42;10.93;;;4.60;;
27383;SDS011;14851;51.166;4.760;2023-08-12T04:29:10;7.35;;;3.72;;
27383;SDS011;14851;51.166;4.760;2023-08-12T04:31:40;4.90;;;3.10;;
27383;SDS011;14851;51.166;4.760;2023-08-12T04:34:06;8.77;;;3.63;;
27383;SDS011;14851;51.166;4.760;2023-08-12T04:36:32;7.00;;;2.92;;
27383;SDS011;14851;51.166;4.760;2023-08-12T04:39:00;6.13;;;3.53;;
27383;SDS011;14851;51.166;4.760;2023-08-12T04:41:27;6.00;;;3.20;;
27383;SDS011;14851;51.166;4.760;2023-08-12T04:43:54;5.57;;;3.53;;
27383;SDS011;14851;51.166;4.760;2023-08-12T04:46:24;5.65;;;2.80;;
27383;SDS011;14851;51.166;4.760;2023-08-12T04:48:50;8.50;;;3.40;;
27383;SDS011;14851;51.166;4.760;2023-08-12T04:51:17;5.43;;;3.63;;
27383;SDS011;14851;51.166;4.760;2023-08-12T04:53:43;5.32;;;3.75;;
27383;SDS011;14851;51.166;4.760;2023-08-12T04:56:09;7.03;;;3.50;;
27383;SDS011;14851;51.166;4.760;2023-08-12T04:58:37;7.13;;;3.75;;
27383;SDS011;14851;51.166;4.760;2023-08-12T05:01:04;5.07;;;3.72;;
27383;SDS011;14851;51.166;4.760;2023-08-12T05:03:30;7.40;;;4.00;;
27383;SDS011;14851;51.166;4.760;2023-08-12T05:05:56;6.05;;;4.05;;
27383;SDS011;14851;51.166;4.760;2023-08-12T05:08:25;5.35;;;4.57;;
27383;SDS011;14851;51.166;4.760;2023-08-12T05:10:51;5.82;;;4.82;;
27383;SDS011;14851;51.166;4.760;2023-08-12T05:13:18;6.18;;;4.40;;
27383;SDS011;14851;51.166;4.760;2023-08-12T05:15:46;7.07;;;5.07;;
27383;SDS011;14851;51.166;4.760;2023-08-12T05:18:14;8.88;;;4.60;;
27383;SDS011;14851;51.166;4.760;2023-08-12T05:20:40;7.55;;;4.82;;
27383;SDS011;14851;51.166;4.760;2023-08-12T05:23:07;5.30;;;4.25;;
27383;SDS011;14851;51.166;4.760;2023-08-12T05:25:33;7.68;;;5.00;;
27383;SDS011;14851;51.166;4.760;2023-08-12T05:27:59;6.10;;;4.07;;
27383;SDS011;14851;51.166;4.760;2023-08-12T05:30:25;5.28;;;4.57;;
27383;SDS011;14851;51.166;4.760;2023-08-12T05:32:53;5.85;;;4.63;;
27383;SDS011;14851;51.166;4.760;2023-08-12T05:35:19;5.75;;;4.50;;
27383;SDS011;14851;51.166;4.760;2023-08-12T05:37:47;7.60;;;4.95;;
27383;SDS011;14851;51.166;4.760;2023-08-12T05:40:13;6.45;;;4.53;;
27383;SDS011;14851;51.166;4.760;2023-08-12T05:42:39;6.10;;;4.95;;
27383;SDS011;14851;51.166;4.760;2023-08-12T05:45:05;5.50;;;4.70;;
27383;SDS011;14851;51.166;4.760;2023-08-12T05:47:34;5.53;;;4.50;;
27383;SDS011;14851;51.166;4.760;2023-08-12T05:50:00;4.68;;;4.18;;
27383;SDS011;14851;51.166;4.760;2023-08-12T05:52:26;5.47;;;4.50;;
27383;SDS011;14851;51.166;4.760;2023-08-12T05:54:54;5.50;;;4.43;;
27383;SDS011;14851;51.166;4.760;2023-08-12T05:57:22;5.18;;;4.47;;
27383;SDS011;14851;51.166;4.760;2023-08-12T05:59:48;5.32;;;4.32;;
27383;SDS011;14851;51.166;4.760;2023-08-12T06:02:13;5.70;;;4.47;;
27383;SDS011;14851;51.166;4.760;2023-08-12T06:04:39;5.35;;;4.10;;
27383;SDS011;14851;51.166;4.760;2023-08-12T06:07:08;5.45;;;4.40;;
27383;SDS011;14851;51.166;4.760;2023-08-12T06:09:34;4.78;;;3.92;;
27383;SDS011;14851;51.166;4.760;2023-08-12T06:12:03;4.85;;;3.78;;
27383;SDS011;14851;51.166;4.760;2023-08-12T06:14:29;4.20;;;3.78;;
27383;SDS011;14851;51.166;4.760;2023-08-12T06:16:55;4.55;;;3.58;;
27383;SDS011;14851;51.166;4.760;2023-08-12T06:19:20;4.70;;;3.80;;
27383;SDS011;14851;51.166;4.760;2023-08-12T06:21:49;3.83;;;3.42;;
27383;SDS011;14851;51.166;4.760;2023-08-12T06:24:15;4.47;;;3.50;;
27383;SDS011;14851;51.166;4.760;2023-08-12T06:26:41;4.07;;;3.45;;
27383;SDS011;14851;51.166;4.760;2023-08-12T06:29:06;5.00;;;3.80;;
27383;SDS011;14851;51.166;4.760;2023-08-12T06:31:34;4.75;;;3.53;;
27383;SDS011;14851;51.166;4.760;2023-08-12T06:34:00;4.00;;;3.60;;
27383;SDS011;14851;51.166;4.760;2023-08-12T06:36:26;5.32;;;3.63;;
27383;SDS011;14851;51.166;4.760;2023-08-12T06:38:52;4.68;;;3.10;;
27383;SDS011;14851;51.166;4.760;2023-08-12T06:41:18;3.97;;;3.05;;
27383;SDS011;14851;51.166;4.760;2023-08-12T06:43:44;3.20;;;2.88;;
27383;SDS011;14851;51.166;4.760;2023-08-12T06:46:10;3.10;;;2.80;;
27383;SDS011;14851;51.166;4.760;2023-08-12T06:48:36;4.75;;;2.85;;
27383;SDS011;14851;51.166;4.760;2023-08-12T06:51:02;2.85;;;2.55;;
27383;SDS011;14851;51.166;4.760;2023-08-12T06:53:35;2.75;;;2.55;;
27383;SDS011;14851;51.166;4.760;2023-08-12T06:56:01;3.15;;;2.85;;
27383;SDS011;14851;51.166;4.760;2023-08-12T06:58:27;2.50;;;2.30;;
27383;SDS011;14851;51.166;4.760;2023-08-12T07:00:55;2.85;;;2.53;;
27383;SDS011;14851;51.166;4.760;2023-08-12T07:03:22;2.78;;;2.58;;
27383;SDS011;14851;51.166;4.760;2023-08-12T07:05:48;2.85;;;2.60;;
27383;SDS011;14851;51.166;4.760;2023-08-12T07:08:16;2.90;;;2.70;;
27383;SDS011;14851;51.166;4.760;2023-08-12T07:10:42;2.70;;;2.50;;
27383;SDS011;14851;51.166;4.760;2023-08-12T07:13:08;3.97;;;2.75;;
27383;SDS011;14851;51.166;4.760;2023-08-12T07:15:34;4.68;;;2.88;;
27383;SDS011;14851;51.166;4.760;2023-08-12T07:18:02;1.63;;;1.52;;
27383;SDS011;14851;51.166;4.760;2023-08-12T07:20:31;1.33;;;1.05;;
27383;SDS011;14851;51.166;4.760;2023-08-12T07:22:57;1.38;;;1.00;;
27383;SDS011;14851;51.166;4.760;2023-08-12T07:25:23;0.77;;;0.70;;
27383;SDS011;14851;51.166;4.760;2023-08-12T07:27:48;1.17;;;0.70;;
27383;SDS011;14851;51.166;4.760;2023-08-12T07:30:14;1.05;;;0.60;;
27383;SDS011;14851;51.166;4.760;2023-08-12T07:32:40;1.02;;;0.55;;
27383;SDS011;14851;51.166;4.760;2023-08-12T07:35:06;2.00;;;0.80;;
27383;SDS011;14851;51.166;4.760;2023-08-12T07:37:35;1.38;;;0.63;;
27383;SDS011;14851;51.166;4.760;2023-08-12T07:40:01;1.13;;;0.60;;
27383;SDS011;14851;51.166;4.760;2023-08-12T07:42:28;0.82;;;0.60;;
27383;SDS011;14851;51.166;4.760;2023-08-12T07:44:56;2.78;;;0.60;;
27383;SDS011;14851;51.166;4.760;2023-08-12T07:47:23;2.65;;;0.70;;
27383;SDS011;14851;51.166;4.760;2023-08-12T07:49:49;1.45;;;0.60;;
27383;SDS011;14851;51.166;4.760;2023-08-12T07:52:14;1.02;;;0.60;;
27383;SDS011;14851;51.166;4.760;2023-08-12T07:54:40;2.33;;;0.70;;
27383;SDS011;14851;51.166;4.760;2023-08-12T07:57:06;0.63;;;0.50;;
27383;SDS011;14851;51.166;4.760;2023-08-12T07:59:32;1.92;;;0.82;;
27383;SDS011;14851;51.166;4.760;2023-08-12T08:01:58;1.17;;;0.90;;
27383;SDS011;14851;51.166;4.760;2023-08-12T08:04:24;3.47;;;2.67;;
27383;SDS011;14851;51.166;4.760;2023-08-12T08:06:50;3.70;;;3.38;;
27383;SDS011;14851;51.166;4.760;2023-08-12T08:09:15;5.45;;;3.97;;
27383;SDS011;14851;51.166;4.760;2023-08-12T08:11:41;4.60;;;3.65;;
27383;SDS011;14851;51.166;4.760;2023-08-12T08:14:07;3.50;;;2.60;;
27383;SDS011;14851;51.166;4.760;2023-08-12T08:16:33;3.05;;;2.75;;
27383;SDS011;14851;51.166;4.760;2023-08-12T08:18:59;3.30;;;3.10;;
27383;SDS011;14851;51.166;4.760;2023-08-12T08:21:25;3.10;;;2.80;;
27383;SDS011;14851;51.166;4.760;2023-08-12T08:23:51;5.15;;;2.60;;
27383;SDS011;14851;51.166;4.760;2023-08-12T08:26:17;2.45;;;2.25;;
27383;SDS011;14851;51.166;4.760;2023-08-12T08:32:23;4.95;;;2.20;;
27383;SDS011;14851;51.166;4.760;2023-08-12T08:34:50;4.75;;;2.72;;
27383;SDS011;14851;51.166;4.760;2023-08-12T08:37:16;2.63;;;1.92;;
27383;SDS011;14851;51.166;4.760;2023-08-12T08:39:42;2.70;;;1.33;;
27383;SDS011;14851;51.166;4.760;2023-08-12T08:42:08;2.67;;;1.38;;
27383;SDS011;14851;51.166;4.760;2023-08-12T08:44:36;1.98;;;1.00;;
27383;SDS011;14851;51.166;4.760;2023-08-12T08:47:07;2.30;;;1.30;;
27383;SDS011;14851;51.166;4.760;2023-08-12T08:49:34;1.88;;;1.10;;
27383;SDS011;14851;51.166;4.760;2023-08-12T08:52:03;3.63;;;1.30;;
27383;SDS011;14851;51.166;4.760;2023-08-12T08:54:29;2.35;;;1.23;;
27383;SDS011;14851;51.166;4.760;2023-08-12T08:56:55;2.65;;;1.33;;
27383;SDS011;14851;51.166;4.760;2023-08-12T08:59:21;2.88;;;1.30;;
27383;SDS011;14851;51.166;4.760;2023-08-12T09:01:48;2.75;;;1.77;;
27383;SDS011;14851;51.166;4.760;2023-08-12T09:04:16;5.80;;;2.92;;
27383;SDS011;14851;51.166;4.760;2023-08-12T09:06:44;5.35;;;4.65;;
27383;SDS011;14851;51.166;4.760;2023-08-12T09:09:12;7.63;;;5.70;;
27383;SDS011;14851;51.166;4.760;2023-08-12T09:11:41;12.23;;;8.93;;
27383;SDS011;14851;51.166;4.760;2023-08-12T09:14:08;18.88;;;15.27;;
27383;SDS011;14851;51.166;4.760;2023-08-12T09:16:34;19.60;;;17.60;;
27383;SDS011;14851;51.166;4.760;2023-08-12T09:19:00;19.35;;;17.30;;
27383;SDS011;14851;51.166;4.760;2023-08-12T09:21:26;20.05;;;17.95;;
27383;SDS011;14851;51.166;4.760;2023-08-12T09:23:52;19.00;;;16.20;;
27383;SDS011;14851;51.166;4.760;2023-08-12T09:26:19;18.38;;;16.42;;
27383;SDS011;14851;51.166;4.760;2023-08-12T09:28:46;16.52;;;14.57;;
27383;SDS011;14851;51.166;4.760;2023-08-12T09:31:29;17.98;;;14.50;;
27383;SDS011;14851;51.166;4.760;2023-08-12T09:33:59;16.85;;;12.02;;
27383;SDS011;14851;51.166;4.760;2023-08-12T09:36:29;8.52;;;6.95;;
27383;SDS011;14851;51.166;4.760;2023-08-12T09:38:56;9.75;;;6.55;;
27383;SDS011;14851;51.166;4.760;2023-08-12T09:41:24;8.98;;;6.40;;
27383;SDS011;14851;51.166;4.760;2023-08-12T09:43:51;8.00;;;6.50;;
27383;SDS011;14851;51.166;4.760;2023-08-12T09:46:21;9.80;;;8.20;;
27383;SDS011;14851;51.166;4.760;2023-08-12T09:48:49;9.48;;;7.65;;
27383;SDS011;14851;51.166;4.760;2023-08-12T09:51:16;10.32;;;8.02;;
27383;SDS011;14851;51.166;4.760;2023-08-12T09:54:00;9.60;;;7.53;;
27383;SDS011;14851;51.166;4.760;2023-08-12T09:56:36;8.70;;;5.72;;
27383;SDS011;14851;51.166;4.760;2023-08-12T09:59:05;8.88;;;5.50;;
27383;SDS011;14851;51.166;4.760;2023-08-12T10:01:32;6.53;;;3.58;;
27383;SDS011;14851;51.166;4.760;2023-08-12T10:03:59;5.93;;;3.22;;
27383;SDS011;14851;51.166;4.760;2023-08-12T10:06:25;5.78;;;2.70;;
27383;SDS011;14851;51.166;4.760;2023-08-12T10:08:52;8.50;;;4.15;;
27383;SDS011;14851;51.166;4.760;2023-08-12T10:11:18;4.93;;;3.00;;
27383;SDS011;14851;51.166;4.760;2023-08-12T10:13:45;7.63;;;3.58;;
27383;SDS011;14851;51.166;4.760;2023-08-12T10:16:12;6.60;;;3.55;;
27383;SDS011;14851;51.166;4.760;2023-08-12T10:18:39;6.90;;;3.50;;
27383;SDS011;14851;51.166;4.760;2023-08-12T10:21:08;7.47;;;2.63;;
27383;SDS011;14851;51.166;4.760;2023-08-12T10:23:36;6.63;;;2.55;;
27383;SDS011;14851;51.166;4.760;2023-08-12T10:26:06;6.25;;;3.08;;
27383;SDS011;14851;51.166;4.760;2023-08-12T10:28:33;7.82;;;3.95;;
27383;SDS011;14851;51.166;4.760;2023-08-12T10:31:11;6.63;;;3.72;;
27383;SDS011;14851;51.166;4.760;2023-08-12T10:33:37;6.00;;;4.20;;
27383;SDS011;14851;51.166;4.760;2023-08-12T10:36:04;8.70;;;5.72;;
27383;SDS011;14851;51.166;4.760;2023-08-12T10:38:31;9.00;;;5.78;;
27383;SDS011;14851;51.166;4.760;2023-08-12T10:41:20;11.73;;;5.63;;
27383;SDS011;14851;51.166;4.760;2023-08-12T10:43:53;7.40;;;4.80;;
27383;SDS011;14851;51.166;4.760;2023-08-12T10:46:28;7.63;;;4.75;;
27383;SDS011;14851;51.166;4.760;2023-08-12T10:48:58;9.85;;;4.53;;
27383;SDS011;14851;51.166;4.760;2023-08-12T10:52:01;8.57;;;2.95;;
27383;SDS011;14851;51.166;4.760;2023-08-12T11:04:49;4.93;;;2.20;;
27383;SDS011;14851;51.166;4.760;2023-08-12T11:07:29;5.32;;;2.20;;
27383;SDS011;14851;51.166;4.760;2023-08-12T11:10:05;5.90;;;2.30;;
27383;SDS011;14851;51.166;4.760;2023-08-12T11:13:14;4.20;;;1.80;;
27383;SDS011;14851;51.166;4.760;2023-08-12T11:18:04;4.50;;;1.80;;
27383;SDS011;14851;51.166;4.760;2023-08-12T11:20:35;4.93;;;2.10;;
27383;SDS011;14851;51.166;4.760;2023-08-12T11:23:05;5.35;;;2.38;;
27383;SDS011;14851;51.166;4.760;2023-08-12T11:25:34;5.63;;;1.65;;
27383;SDS011;14851;51.166;4.760;2023-08-12T11:28:03;7.22;;;2.00;;
27383;SDS011;14851;51.166;4.760;2023-08-12T11:30:30;4.00;;;2.05;;
27383;SDS011;14851;51.166;4.760;2023-08-12T11:32:56;4.32;;;1.88;;
27383;SDS011;14851;51.166;4.760;2023-08-12T11:35:25;5.75;;;2.30;;
27383;SDS011;14851;51.166;4.760;2023-08-12T11:37:54;5.03;;;1.98;;
27383;SDS011;14851;51.166;4.760;2023-08-12T11:40:21;6.07;;;2.20;;
27383;SDS011;14851;51.166;4.760;2023-08-12T11:42:49;6.65;;;1.90;;
27383;SDS011;14851;51.166;4.760;2023-08-12T11:45:20;6.15;;;1.95;;
27383;SDS011;14851;51.166;4.760;2023-08-12T11:47:47;6.00;;;2.05;;
27383;SDS011;14851;51.166;4.760;2023-08-12T11:50:18;5.57;;;1.50;;
27383;SDS011;14851;51.166;4.760;2023-08-12T11:52:45;6.25;;;2.00;;
27383;SDS011;14851;51.166;4.760;2023-08-12T11:55:12;8.15;;;2.08;;
27383;SDS011;14851;51.166;4.760;2023-08-12T11:57:41;4.75;;;1.55;;
27383;SDS011;14851;51.166;4.760;2023-08-12T12:00:08;4.57;;;1.52;;
27383;SDS011;14851;51.166;4.760;2023-08-12T12:02:39;5.78;;;1.80;;
27383;SDS011;14851;51.166;4.760;2023-08-12T12:05:09;6.75;;;1.98;;
27383;SDS011;14851;51.166;4.760;2023-08-12T12:07:36;7.47;;;1.60;;
27383;SDS011;14851;51.166;4.760;2023-08-12T12:10:04;7.20;;;1.80;;
27383;SDS011;14851;51.166;4.760;2023-08-12T12:12:33;4.97;;;1.63;;
27383;SDS011;14851;51.166;4.760;2023-08-12T12:15:02;6.78;;;1.70;;
27383;SDS011;14851;51.166;4.760;2023-08-12T12:17:29;4.07;;;1.50;;
27383;SDS011;14851;51.166;4.760;2023-08-12T12:19:55;3.80;;;1.25;;
27383;SDS011;14851;51.166;4.760;2023-08-12T12:22:27;5.82;;;1.58;;
27383;SDS011;14851;51.166;4.760;2023-08-12T12:24:57;4.25;;;1.17;;
27383;SDS011;14851;51.166;4.760;2023-08-12T12:27:27;6.15;;;1.75;;
27383;SDS011;14851;51.166;4.760;2023-08-12T12:29:53;4.15;;;1.60;;
27383;SDS011;14851;51.166;4.760;2023-08-12T12:32:19;4.88;;;1.13;;
27383;SDS011;14851;51.166;4.760;2023-08-12T12:34:46;5.90;;;1.83;;
27383;SDS011;14851;51.166;4.760;2023-08-12T12:37:12;5.65;;;1.35;;
27383;SDS011;14851;51.166;4.760;2023-08-12T12:39:39;5.30;;;1.55;;
27383;SDS011;14851;51.166;4.760;2023-08-12T12:42:05;4.95;;;1.90;;
27383;SDS011;14851;51.166;4.760;2023-08-12T12:44:31;8.55;;;1.73;;
27383;SDS011;14851;51.166;4.760;2023-08-12T12:47:02;6.60;;;1.38;;
27383;SDS011;14851;51.166;4.760;2023-08-12T12:49:32;6.10;;;1.58;;
27383;SDS011;14851;51.166;4.760;2023-08-12T12:51:58;8.25;;;1.30;;
27383;SDS011;14851;51.166;4.760;2023-08-12T12:54:24;6.65;;;1.20;;
27383;SDS011;14851;51.166;4.760;2023-08-12T12:56:52;4.72;;;1.30;;
27383;SDS011;14851;51.166;4.760;2023-08-12T13:02:25;5.18;;;1.55;;
27383;SDS011;14851;51.166;4.760;2023-08-12T13:05:00;4.90;;;1.45;;
27383;SDS011;14851;51.166;4.760;2023-08-12T13:07:34;3.90;;;1.05;;
27383;SDS011;14851;51.166;4.760;2023-08-12T13:10:00;6.65;;;1.60;;
27383;SDS011;14851;51.166;4.760;2023-08-12T13:12:26;5.28;;;1.35;;
27383;SDS011;14851;51.166;4.760;2023-08-12T13:14:52;7.53;;;1.23;;
27383;SDS011;14851;51.166;4.760;2023-08-12T13:17:22;5.93;;;1.60;;
27383;SDS011;14851;51.166;4.760;2023-08-12T13:19:56;5.82;;;1.58;;
27383;SDS011;14851;51.166;4.760;2023-08-12T13:22:33;4.00;;;1.08;;
27383;SDS011;14851;51.166;4.760;2023-08-12T13:25:00;4.78;;;1.23;;
27383;SDS011;14851;51.166;4.760;2023-08-12T13:27:28;5.13;;;1.00;;
27383;SDS011;14851;51.166;4.760;2023-08-12T13:29:57;6.22;;;1.77;;
27383;SDS011;14851;51.166;4.760;2023-08-12T13:32:22;3.97;;;1.15;;
27383;SDS011;14851;51.166;4.760;2023-08-12T13:34:53;4.80;;;1.10;;
27383;SDS011;14851;51.166;4.760;2023-08-12T13:37:19;4.93;;;1.08;;
27383;SDS011;14851;51.166;4.760;2023-08-12T13:39:45;5.78;;;1.20;;
27383;SDS011;14851;51.166;4.760;2023-08-12T13:42:10;4.97;;;1.40;;
27383;SDS011;14851;51.166;4.760;2023-08-12T13:44:37;4.25;;;1.23;;
27383;SDS011;14851;51.166;4.760;2023-08-12T13:47:03;5.40;;;1.25;;
27383;SDS011;14851;51.166;4.760;2023-08-12T13:49:28;2.83;;;1.02;;
27383;SDS011;14851;51.166;4.760;2023-08-12T13:51:54;6.07;;;1.17;;
27383;SDS011;14851;51.166;4.760;2023-08-12T13:54:23;2.75;;;0.98;;
27383;SDS011;14851;51.166;4.760;2023-08-12T13:56:49;5.57;;;1.30;;
27383;SDS011;14851;51.166;4.760;2023-08-12T13:59:14;5.07;;;1.27;;
27383;SDS011;14851;51.166;4.760;2023-08-12T14:01:40;4.32;;;1.20;;
27383;SDS011;14851;51.166;4.760;2023-08-12T14:04:08;6.20;;;1.35;;
27383;SDS011;14851;51.166;4.760;2023-08-12T14:06:36;6.03;;;1.67;;
27383;SDS011;14851;51.166;4.760;2023-08-12T14:09:02;6.10;;;1.73;;
27383;SDS011;14851;51.166;4.760;2023-08-12T14:11:28;4.43;;;1.30;;
27383;SDS011;14851;51.166;4.760;2023-08-12T14:13:56;3.08;;;1.25;;
27383;SDS011;14851;51.166;4.760;2023-08-12T14:16:22;6.07;;;1.52;;
27383;SDS011;14851;51.166;4.760;2023-08-12T14:18:48;5.05;;;1.30;;
27383;SDS011;14851;51.166;4.760;2023-08-12T14:21:16;4.22;;;1.27;;
27383;SDS011;14851;51.166;4.760;2023-08-12T14:23:42;4.22;;;1.10;;
27383;SDS011;14851;51.166;4.760;2023-08-12T14:26:08;3.97;;;1.42;;
27383;SDS011;14851;51.166;4.760;2023-08-12T14:28:34;2.95;;;1.00;;
27383;SDS011;14851;51.166;4.760;2023-08-12T14:30:59;4.53;;;1.27;;
27383;SDS011;14851;51.166;4.760;2023-08-12T14:33:28;3.95;;;1.17;;
27383;SDS011;14851;51.166;4.760;2023-08-12T14:35:57;4.68;;;1.58;;
27383;SDS011;14851;51.166;4.760;2023-08-12T14:38:23;3.80;;;1.15;;
27383;SDS011;14851;51.166;4.760;2023-08-12T14:43:19;5.63;;;1.55;;
27383;SDS011;14851;51.166;4.760;2023-08-12T14:45:44;4.53;;;1.30;;
27383;SDS011;14851;51.166;4.760;2023-08-12T14:48:13;3.97;;;1.10;;
27383;SDS011;14851;51.166;4.760;2023-08-12T14:50:43;4.60;;;1.40;;
27383;SDS011;14851;51.166;4.760;2023-08-12T14:53:09;5.13;;;1.50;;
27383;SDS011;14851;51.166;4.760;2023-08-12T14:55:37;3.03;;;1.17;;
27383;SDS011;14851;51.166;4.760;2023-08-12T14:58:03;4.80;;;1.50;;
27383;SDS011;14851;51.166;4.760;2023-08-12T15:00:30;6.90;;;1.30;;
27383;SDS011;14851;51.166;4.760;2023-08-12T15:02:59;4.38;;;1.10;;
27383;SDS011;14851;51.166;4.760;2023-08-12T15:05:25;5.07;;;1.17;;
27383;SDS011;14851;51.166;4.760;2023-08-12T15:07:53;3.55;;;1.33;;
27383;SDS011;14851;51.166;4.760;2023-08-12T15:10:19;5.80;;;1.38;;
27383;SDS011;14851;51.166;4.760;2023-08-12T15:12:48;3.53;;;1.50;;
27383;SDS011;14851;51.166;4.760;2023-08-12T15:15:16;6.97;;;1.42;;
27383;SDS011;14851;51.166;4.760;2023-08-12T15:17:42;4.82;;;1.40;;